Hannover, Germany

6:34 AM CET on January 31, 2015 (GMT +0100)
Hannover | Change Station
CLOSE
Current Station
Airport
Location: Hannover,
Elevation: 180 ft
Nearby Weather Stations

Elev 180 ft 52.47 °N, 9.68 °E | Updated 14 minutes ago

Mostly Cloudy
Mostly Cloudy
32 °F
Feels Like 28 °F
N
5
Wind Variable Wind from South

Today
High -- | Low -- °F
--% Chance of Precip.
Yesterday
High -- | Low -- °F
Precip. -- in
8:04 AM 5:04 PM
Waxing Gibbous, 87% visible
Pressure 28.82 in
Visibility 3.7 miles
Clouds Mostly Cloudy 2000 ft
Windchill 28 °F
Dew Point 30 °F
Humidity 93%
Rainfall 0.00 in
Snow Depth Not available.
UV 0 out of 12
Pollen Not available.
Air Quality Not available.
Flu Activity Not available.
METAR EDDV 310520Z 18004KT 6000 BKN020 M00/M01 Q0976 NOSIG

More Conditions Fewer Conditions

Pressure 28.82 in
Visibility 3.7 miles
Clouds Mostly Cloudy 2000 ft
Windchill 28 °F
Dew Point 30 °F
Humidity 93%
Rainfall 0.00 in
Snow Depth Not available.
UV 0 out of 12
Pollen Not available.
Air Quality Not available.
Flu Activity Not available.
METAR EDDV 310520Z 18004KT 6000 BKN020 M00/M01 Q0976 NOSIG

More Conditions Fewer Conditions

10-Day Weather Forecast

Almanac

Astronomy

Jan. 31, 2015 Rise Set
Actual Time
Civil Twilight
Nautical Twilight
Astronomical Twilight
Moon
Length of Visible Light
Length of Day
Tomorrow will be .
, % of the Moon is Illuminated

Today's Extremes

Country Highs Country Lows

Community

WunderPhotos

Upload Photos

1,792,005 photos uploaded!

WunderBlogs® & News

Nearby

Air Quality

  Air Quality AQ Index Pollutant
Not available.

Snow Depth

Station Depth Elevation

Earthquake Activity

City Distance Mag. Time & Date
Minimum magnitude displayed is 2.5.

Coastal Water Temperatures

Place Temperature

Nearby Weather Stations